Krassy — DD7405 — position and weather

sailwx.info

Track history (hours):
 
Tides and Currents Weather Stations Pressure Air Temp Water Temp Dewpoint Dewpoint Depression Visibility Wind Speed Wind Dir Waves Ship Positions

Krassy

Last reported at 2017-Sep-25 19:58 UTC. Time now 2017-Dec-11 15:13 UTC.
Position N 37°58' W 009°49'.
Warning: this ship's position is months out of date.

Length 11 m.

Type: Pleasure craft. MMSI: 211591740.

Date/timePositionNaut miles runAvg speedWind from/ knotsBaromVisibWave heightAir tempDewpointWater temp
2017-Sep-25 19:58N 37°58' W 009°49'3 6.1
2017-Sep-25 19:30N 38°00' W 009°47'3 6.1
2017-Sep-25 19:00N 38°03' W 009°46'3 5.7
2017-Sep-25 18:30N 38°06' W 009°44'3 5.4
2017-Sep-25 17:58N 38°09' W 009°43'3 5.2
2017-Sep-25 17:29N 38°11' W 009°42'3 6.1
2017-Sep-25 16:58N 38°13' W 009°39'3 6.3
2017-Sep-25 16:30N 38°16' W 009°37'15 6.1
2017-Sep-25 13:59N 38°30' W 009°29'3 5.7
2017-Sep-25 13:30N 38°32' W 009°28'3 5.2
2017-Sep-25 12:59N 38°35' W 009°27'3 5.7
2017-Sep-25 12:30N 38°38' W 009°26'3 5.8
2017-Sep-25 11:58N 38°41' W 009°25'1 1.8
2017-Sep-25 11:25N 38°42' W 009°25'3 5.2
2017-Sep-25 10:53N 38°41' W 009°22'2 5.2
2017-Sep-25 10:30N 38°40' W 009°19'4 7.4
2017-Sep-25 09:58N 38°41' W 009°14'3 7.1
2017-Sep-25 09:29N 38°42' W 009°10'  
2017-Sep-21 12:28N 38°42' W 009°08'3 6.5
2017-Sep-21 11:58N 38°41' W 009°12'3 5.6
2017-Sep-21 11:26N 38°41' W 009°16'3 6.1
2017-Sep-21 10:58N 38°40' W 009°19'3 5.5
2017-Sep-21 10:25N 38°41' W 009°23'2 0.2
2017-Sep-21 01:48N 38°41' W 009°25'0 0.0
2017-Sep-20 17:13N 38°42' W 009°25'1 2.7
2017-Sep-20 17:00N 38°41' W 009°25'2 4.2
2017-Sep-20 16:30N 38°41' W 009°28'5 5.5
2017-Sep-20 15:33N 38°46' W 009°31'0 4.7
2017-Sep-20 15:30N 38°46' W 009°31'2 4.2
2017-Sep-20 15:00N 38°48' W 009°31'4 4.3
2017-Sep-20 14:00N 38°52' W 009°30'2 4.4
2017-Sep-20 13:30N 38°55' W 009°30'2 4.8
2017-Sep-20 13:00N 38°57' W 009°29'3 6.3
2017-Sep-20 12:30N 38°60' W 009°28'3 5.9
2017-Sep-20 11:59N 39°03' W 009°28'3 5.7
2017-Sep-20 11:25N 39°06' W 009°27'  
Track history (hours):
 
Tides and Currents Weather Stations Pressure Air Temp Water Temp Dewpoint Dewpoint Depression Visibility Wind Speed Wind Dir Waves Ship Positions

Krassy

Last reported at 2017-Sep-25 19:58 UTC. Time now 2017-Dec-11 15:13 UTC.
Position N 37°58' W 009°49'.
Warning: this ship's position is months out of date.

Length 11 m.

Type: Pleasure craft. MMSI: 211591740.

Date/timePositionNaut miles runAvg speedWind from/ knotsBaromVisibWave heightAir tempDewpointWater temp
2017-Sep-25 19:58N 37°58' W 009°49'3 6.1
2017-Sep-25 19:30N 38°00' W 009°47'3 6.1
2017-Sep-25 19:00N 38°03' W 009°46'3 5.7
2017-Sep-25 18:30N 38°06' W 009°44'3 5.4
2017-Sep-25 17:58N 38°09' W 009°43'3 5.2
2017-Sep-25 17:29N 38°11' W 009°42'3 6.1
2017-Sep-25 16:58N 38°13' W 009°39'3 6.3
2017-Sep-25 16:30N 38°16' W 009°37'15 6.1
2017-Sep-25 13:59N 38°30' W 009°29'3 5.7
2017-Sep-25 13:30N 38°32' W 009°28'3 5.2
2017-Sep-25 12:59N 38°35' W 009°27'3 5.7
2017-Sep-25 12:30N 38°38' W 009°26'3 5.8
2017-Sep-25 11:58N 38°41' W 009°25'1 1.8
2017-Sep-25 11:25N 38°42' W 009°25'3 5.2
2017-Sep-25 10:53N 38°41' W 009°22'2 5.2
2017-Sep-25 10:30N 38°40' W 009°19'4 7.4
2017-Sep-25 09:58N 38°41' W 009°14'3 7.1
2017-Sep-25 09:29N 38°42' W 009°10'  
2017-Sep-21 12:28N 38°42' W 009°08'3 6.5
2017-Sep-21 11:58N 38°41' W 009°12'3 5.6
2017-Sep-21 11:26N 38°41' W 009°16'3 6.1
2017-Sep-21 10:58N 38°40' W 009°19'3 5.5
2017-Sep-21 10:25N 38°41' W 009°23'2 0.2
2017-Sep-21 01:48N 38°41' W 009°25'0 0.0
2017-Sep-20 17:13N 38°42' W 009°25'1 2.7
2017-Sep-20 17:00N 38°41' W 009°25'2 4.2
2017-Sep-20 16:30N 38°41' W 009°28'5 5.5
2017-Sep-20 15:33N 38°46' W 009°31'0 4.7
2017-Sep-20 15:30N 38°46' W 009°31'2 4.2
2017-Sep-20 15:00N 38°48' W 009°31'4 4.3
2017-Sep-20 14:00N 38°52' W 009°30'2 4.4
2017-Sep-20 13:30N 38°55' W 009°30'2 4.8
2017-Sep-20 13:00N 38°57' W 009°29'3 6.3
2017-Sep-20 12:30N 38°60' W 009°28'3 5.9
2017-Sep-20 11:59N 39°03' W 009°28'3 5.7
2017-Sep-20 11:25N 39°06' W 009°27'  

Dump ship's entire track history